Time;durP1;ratioP1;P1;durP2;ratioP2;P2;SDS_P1;SDS_P2;PMS_P1;PMS_P2;Temp;Humidity;BMP_temperature;BMP_pressure;BME280_temperature;BME280_humidity;BME280_pressure;Samples;Min_cycle;Max_cycle;Signal;HPM_P1;HPM_P2
2024/01/07 00:01:48;;;;;;;;;;;;;;;9.55;51.45;100639.94;4965917;28;98160;-64
2024/01/07 00:04:18;;;;;;;;;;;;;;;9.53;50.75;100642.06;4986029;27;98128;-66
2024/01/07 00:06:44;;;;;;;;;;;;;;;9.53;50.83;100643.94;4969136;28;97966;-64
2024/01/07 00:09:12;;;;;;;;;;;;;;;9.52;50.97;100645.84;4950226;27;98135;-64
2024/01/07 00:11:39;;;;;;;;;;;;;;;9.53;50.73;100642.06;4943879;27;99430;-66
2024/01/07 00:14:05;;;;;;;;;;;;;;;9.54;50.92;100643.69;4986345;27;98142;-65
2024/01/07 00:16:31;;;;;;;;;;;;;;;9.53;50.63;100644.75;4966821;28;99126;-64
2024/01/07 00:18:56;;;;;;;;;;;;;;;9.54;51.37;100648.25;4960102;28;99244;-66
2024/01/07 00:21:24;;;;;;;;;;;;;;;9.54;51.01;100650.94;4967566;27;129225;-64
2024/01/07 00:23:50;;;;;;;;;;;;;;;9.53;51.21;100658.22;4944728;27;98336;-64
2024/01/07 00:26:16;;;;;;;;;;;;;;;9.53;50.67;100647.44;4947093;27;99241;-66
2024/01/07 00:28:41;;;;;;;;;;;;;;;9.53;50.73;100646.63;4947587;28;122049;-64
2024/01/07 00:31:09;;;;;;;;;;;;;;;9.53;50.49;100662.78;4952501;27;106258;-66
2024/01/07 00:33:35;;;;;;;;;;;;;;;9.52;50.97;100659.28;4961501;27;98854;-66
2024/01/07 00:36:01;;;;;;;;;;;;;;;9.52;50.92;100661.97;4947908;27;98363;-66
2024/01/07 00:38:27;;;;;;;;;;;;;;;9.52;50.91;100669.25;4962818;27;127566;-64
2024/01/07 00:40:53;;;;;;;;;;;;;;;9.51;51.01;100676.50;4942276;27;98221;-66
2024/01/07 00:43:19;;;;;;;;;;;;;;;9.51;50.59;100670.28;4952094;27;127014;-66
2024/01/07 00:45:45;;;;;;;;;;;;;;;9.51;51.39;100675.66;4941405;28;118409;-63
2024/01/07 00:48:13;;;;;;;;;;;;;;;9.50;50.85;100674.06;4945836;27;99751;-66
2024/01/07 00:50:39;;;;;;;;;;;;;;;9.49;51.27;100675.13;4947334;27;100210;-66
2024/01/07 00:53:05;;;;;;;;;;;;;;;9.48;51.33;100678.91;4945910;28;127489;-66
2024/01/07 00:55:31;;;;;;;;;;;;;;;9.47;50.76;100686.16;4943844;27;120445;-64
2024/01/07 00:57:57;;;;;;;;;;;;;;;9.46;50.51;100692.59;4962992;28;108872;-64
2024/01/07 01:00:23;;;;;;;;;;;;;;;9.46;51.15;100692.59;4951518;27;98598;-63
2024/01/07 01:02:49;;;;;;;;;;;;;;;9.46;50.68;100694.47;4950962;27;97927;-64
2024/01/07 01:05:15;;;;;;;;;;;;;;;9.45;50.57;100684.78;4982720;27;98440;-66
2024/01/07 01:07:41;;;;;;;;;;;;;;;9.45;50.55;100688.28;4959713;27;118151;-64
2024/01/07 01:10:07;;;;;;;;;;;;;;;9.44;50.69;100699.31;4947311;28;118927;-64
2024/01/07 01:12:33;;;;;;;;;;;;;;;9.43;50.88;100698.50;4968968;27;98200;-66
2024/01/07 01:14:59;;;;;;;;;;;;;;;9.43;51.14;100703.88;4949929;27;98133;-66
2024/01/07 01:17:25;;;;;;;;;;;;;;;9.41;51.19;100703.31;4945729;27;97975;-66
2024/01/07 01:19:51;;;;;;;;;;;;;;;9.42;50.73;100713.00;4960237;28;109263;-64
2024/01/07 01:22:17;;;;;;;;;;;;;;;9.41;50.75;100715.94;4952435;27;99786;-66
2024/01/07 01:24:45;;;;;;;;;;;;;;;9.41;51.07;100716.75;4948909;27;119152;-64
2024/01/07 01:27:13;;;;;;;;;;;;;;;9.40;50.97;100720.53;4950170;28;97983;-64
2024/01/07 01:29:39;;;;;;;;;;;;;;;9.39;50.52;100724.25;4945059;27;98719;-66
2024/01/07 01:32:06;;;;;;;;;;;;;;;9.40;50.31;100730.47;4951383;28;98848;-66
2024/01/07 01:34:32;;;;;;;;;;;;;;;9.39;50.97;100721.56;4943061;27;99794;-66
2024/01/07 01:36:58;;;;;;;;;;;;;;;9.40;50.97;100730.47;4947451;27;119366;-64
2024/01/07 01:39:24;;;;;;;;;;;;;;;9.38;50.66;100729.91;4944337;27;98218;-66
2024/01/07 01:41:50;;;;;;;;;;;;;;;9.38;50.97;100727.22;4968867;27;122437;-63
2024/01/07 01:44:15;;;;;;;;;;;;;;;9.37;50.99;100721.03;4966128;28;99619;-66
2024/01/07 01:46:41;;;;;;;;;;;;;;;9.36;50.70;100732.84;4954252;27;130421;-64
2024/01/07 01:49:08;;;;;;;;;;;;;;;9.37;50.78;100737.16;4965718;27;98120;-64
2024/01/07 01:51:34;;;;;;;;;;;;;;;9.36;50.99;100738.25;4958951;27;99085;-66
2024/01/07 01:54:00;;;;;;;;;;;;;;;9.36;51.07;100737.44;4961748;27;105773;-66
2024/01/07 01:56:27;;;;;;;;;;;;;;;9.34;51.24;100733.09;4964340;27;98080;-66
2024/01/07 01:58:53;;;;;;;;;;;;;;;9.35;50.56;100744.66;4980229;27;98447;-67
2024/01/07 02:01:19;;;;;;;;;;;;;;;9.35;50.70;100744.66;4963787;27;100889;-66
2024/01/07 02:03:46;;;;;;;;;;;;;;;9.34;50.49;100734.97;4966760;27;116353;-63
2024/01/07 02:06:12;;;;;;;;;;;;;;;9.33;50.71;100736.84;4974154;27;98112;-64
2024/01/07 02:08:38;;;;;;;;;;;;;;;9.32;51.03;100742.50;4955450;27;125158;-64
2024/01/07 02:11:21;;;;;;;;;;;;;;;9.33;50.98;100746.81;4970486;27;98010;-66
2024/01/07 02:13:47;;;;;;;;;;;;;;;9.31;50.69;100744.38;4949019;27;99467;-64
2024/01/07 02:16:13;;;;;;;;;;;;;;;9.31;50.87;100744.38;4952568;28;100120;-66
2024/01/07 02:18:43;;;;;;;;;;;;;;;9.32;50.86;100739.81;4963660;27;103436;-64
2024/01/07 02:21:10;;;;;;;;;;;;;;;9.30;50.76;100741.94;4963672;27;97998;-64
2024/01/07 02:23:36;;;;;;;;;;;;;;;9.29;50.97;100743.00;4992338;27;100165;-66
2024/01/07 02:26:02;;;;;;;;;;;;;;;9.26;51.02;100752.38;4966090;27;104269;-64
2024/01/07 02:28:29;;;;;;;;;;;;;;;9.24;51.30;100751.03;4950242;28;128842;-64
2024/01/07 02:30:55;;;;;;;;;;;;;;;9.21;51.09;100760.38;4951880;27;99318;-66
2024/01/07 02:33:21;;;;;;;;;;;;;;;9.19;50.96;100759.81;4967888;28;107835;-66
2024/01/07 02:35:47;;;;;;;;;;;;;;;9.18;50.94;100762.75;4965803;27;106219;-64
2024/01/07 02:38:13;;;;;;;;;;;;;;;9.17;51.30;100763.84;4947376;28;98029;-66
2024/01/07 02:40:39;;;;;;;;;;;;;;;9.14;51.25;100764.34;4945940;27;126680;-64
2024/01/07 02:43:05;;;;;;;;;;;;;;;9.13;50.93;100760.03;4973611;28;98098;-63
2024/01/07 02:45:31;;;;;;;;;;;;;;;9.10;50.89;100770.22;4952208;27;99530;-66
2024/01/07 02:47:57;;;;;;;;;;;;;;;9.09;50.92;100773.16;4954659;27;97984;-64
2024/01/07 02:50:23;;;;;;;;;;;;;;;9.07;50.55;100769.88;4960683;28;98131;-66
2024/01/07 02:52:49;;;;;;;;;;;;;;;9.05;51.07;100770.16;4969701;27;97963;-66
2024/01/07 02:55:15;;;;;;;;;;;;;;;9.05;50.49;100772.03;4951018;27;99893;-66
2024/01/07 02:57:41;;;;;;;;;;;;;;;9.04;50.65;100773.91;4953560;28;100318;-63
2024/01/07 03:00:07;;;;;;;;;;;;;;;9.03;50.41;100774.94;4952568;27;98383;-66
2024/01/07 03:02:33;;;;;;;;;;;;;;;9.02;50.11;100773.31;4954526;28;98583;-66
2024/01/07 03:04:59;;;;;;;;;;;;;;;9.02;50.59;100775.22;4947939;27;112630;-66
2024/01/07 03:07:26;;;;;;;;;;;;;;;9.01;50.20;100777.09;4951836;28;130372;-63
2024/01/07 03:09:52;;;;;;;;;;;;;;;9.01;51.01;100781.66;4950294;27;97903;-63
2024/01/07 03:12:18;;;;;;;;;;;;;;;9.01;50.84;100781.66;4949138;27;108709;-66
2024/01/07 03:14:44;;;;;;;;;;;;;;;9.00;51.05;100778.16;4965922;27;103383;-64
2024/01/07 03:17:10;;;;;;;;;;;;;;;8.99;50.94;100784.56;4957987;27;113865;-66
2024/01/07 03:19:38;;;;;;;;;;;;;;;8.99;50.96;100783.75;4959085;28;99794;-64
2024/01/07 03:22:05;;;;;;;;;;;;;;;8.98;50.86;100785.66;4956964;27;98190;-66
2024/01/07 03:24:33;;;;;;;;;;;;;;;8.99;50.21;100789.16;4948877;28;119113;-66
2024/01/07 03:26:59;;;;;;;;;;;;;;;8.96;50.58;100790.47;4964237;27;98198;-66
2024/01/07 03:29:25;;;;;;;;;;;;;;;8.98;51.15;100798.28;4977175;27;128412;-64
2024/01/07 03:31:52;;;;;;;;;;;;;;;8.97;50.51;100797.47;4947474;27;98210;-63
2024/01/07 03:34:19;;;;;;;;;;;;;;;8.96;50.55;100797.69;4951613;27;98235;-66
2024/01/07 03:36:45;;;;;;;;;;;;;;;8.96;51.08;100800.41;4949899;27;98215;-64
2024/01/07 03:39:11;;;;;;;;;;;;;;;8.96;50.93;100808.47;4986614;27;98416;-64
2024/01/07 03:41:37;;;;;;;;;;;;;;;8.96;50.85;100805.78;4949875;27;98079;-66
2024/01/07 03:44:03;;;;;;;;;;;;;;;8.95;50.76;100799.59;4945024;27;101391;-63
2024/01/07 03:46:29;;;;;;;;;;;;;;;8.94;50.73;100805.22;4942433;28;99756;-63
2024/01/07 03:48:55;;;;;;;;;;;;;;;8.94;50.88;100813.28;4969271;28;98883;-64
2024/01/07 03:51:22;;;;;;;;;;;;;;;8.93;50.42;100817.03;4950880;27;100687;-63
2024/01/07 03:53:47;;;;;;;;;;;;;;;8.93;50.50;100811.66;4963309;27;104750;-63
2024/01/07 03:56:13;;;;;;;;;;;;;;;8.92;50.71;100821.59;4949476;27;98476;-64
2024/01/07 03:58:39;;;;;;;;;;;;;;;8.91;50.35;100817.28;4963001;28;100107;-66
2024/01/07 04:01:05;;;;;;;;;;;;;;;8.91;50.69;100814.59;4947274;27;98071;-66
2024/01/07 04:03:31;;;;;;;;;;;;;;;8.90;50.40;100818.34;4966691;28;128037;-66
2024/01/07 04:05:57;;;;;;;;;;;;;;;8.90;50.47;100821.03;4957081;27;111426;-65
2024/01/07 04:08:23;;;;;;;;;;;;;;;8.90;51.15;100820.22;4951438;27;100470;-66
2024/01/07 04:10:50;;;;;;;;;;;;;;;8.88;50.45;100817.75;4954326;27;98004;-64
2024/01/07 04:13:16;;;;;;;;;;;;;;;8.89;50.78;100823.97;4950759;27;110746;-63
2024/01/07 04:15:42;;;;;;;;;;;;;;;8.88;50.67;100827.69;4971172;27;98501;-66
2024/01/07 04:18:08;;;;;;;;;;;;;;;8.87;50.74;100824.22;4944491;27;98210;-63
2024/01/07 04:20:35;;;;;;;;;;;;;;;8.86;51.05;100825.28;4964285;27;98212;-66
2024/01/07 04:23:01;;;;;;;;;;;;;;;8.87;50.42;100828.78;4949111;27;129514;-63
2024/01/07 04:25:27;;;;;;;;;;;;;;;8.85;50.62;100824.47;4964577;28;99355;-63
2024/01/07 04:27:53;;;;;;;;;;;;;;;8.85;50.29;100829.84;4964260;28;99405;-63
2024/01/07 04:30:19;;;;;;;;;;;;;;;8.84;51.00;100828.22;4946100;27;100000;-66
2024/01/07 04:32:45;;;;;;;;;;;;;;;8.84;51.07;100830.06;4947105;27;127728;-63
2024/01/07 04:35:11;;;;;;;;;;;;;;;8.83;50.73;100831.94;4955816;27;99345;-64
2024/01/07 04:37:37;;;;;;;;;;;;;;;8.83;50.84;100831.13;4963556;28;107387;-66
2024/01/07 04:40:03;;;;;;;;;;;;;;;8.81;50.38;100833.28;4945360;27;100664;-64
2024/01/07 04:42:29;;;;;;;;;;;;;;;8.82;50.33;100842.97;4949679;27;100036;-66
2024/01/07 04:44:55;;;;;;;;;;;;;;;8.81;50.91;100846.72;4963537;27;98638;-64
2024/01/07 04:47:30;;;;;;;;;;;;;;;8.81;50.22;100846.72;4966207;27;98961;-66
2024/01/07 04:49:56;;;;;;;;;;;;;;;8.80;50.79;100845.06;4966380;28;98526;-66
2024/01/07 04:52:22;;;;;;;;;;;;;;;8.80;50.31;100853.13;4958162;27;99879;-64
2024/01/07 04:54:51;;;;;;;;;;;;;;;8.84;51.02;100852.41;4951757;27;98165;-66
2024/01/07 04:57:17;;;;;;;;;;;;;;;8.91;50.38;100862.97;4965669;28;97964;-64
2024/01/07 04:59:44;;;;;;;;;;;;;;;8.97;50.16;100858.50;4964146;27;98560;-67
2024/01/07 05:02:10;;;;;;;;;;;;;;;9.02;50.50;100861.25;4962326;27;99900;-67
2024/01/07 05:04:36;;;;;;;;;;;;;;;9.05;50.75;100864.28;4941178;27;114226;-66
2024/01/07 05:07:03;;;;;;;;;;;;;;;9.10;50.06;100863.53;4942504;28;129340;-66
2024/01/07 05:09:29;;;;;;;;;;;;;;;9.12;50.86;100866.78;4979326;27;98209;-63
2024/01/07 05:11:55;;;;;;;;;;;;;;;9.15;50.63;100868.97;4955047;27;98424;-66
2024/01/07 05:14:22;;;;;;;;;;;;;;;9.18;50.34;100873.03;4945004;27;112156;-64
2024/01/07 05:16:48;;;;;;;;;;;;;;;9.19;50.72;100880.03;4963249;27;98031;-64
2024/01/07 05:19:14;;;;;;;;;;;;;;;9.21;50.49;100886.00;4962242;27;109823;-66
2024/01/07 05:21:40;;;;;;;;;;;;;;;9.22;50.32;100876.88;4958885;27;128383;-67
2024/01/07 05:24:06;;;;;;;;;;;;;;;9.22;50.68;100879.56;4942422;27;126579;-66
2024/01/07 05:26:39;;;;;;;;;;;;;;;9.23;51.23;100886.56;4949712;27;98283;-64
2024/01/07 05:29:05;;;;;;;;;;;;;;;9.22;50.33;100885.75;4965773;27;98011;-66
2024/01/07 05:31:31;;;;;;;;;;;;;;;9.22;51.11;100893.81;4970357;27;108659;-66
2024/01/07 05:33:57;;;;;;;;;;;;;;;9.21;50.94;100888.69;4960506;27;127979;-66
2024/01/07 05:36:23;;;;;;;;;;;;;;;9.21;50.75;100892.19;4961154;27;98180;-66
2024/01/07 05:38:49;;;;;;;;;;;;;;;9.20;50.52;100893.25;4980508;27;98418;-66
2024/01/07 05:41:15;;;;;;;;;;;;;;;9.21;50.00;100896.75;4949094;28;99689;-66
2024/01/07 05:43:41;;;;;;;;;;;;;;;9.19;50.81;100898.88;4963023;27;111138;-66
2024/01/07 05:46:07;;;;;;;;;;;;;;;9.18;50.79;100903.44;4965651;27;97955;-66
2024/01/07 05:48:46;;;;;;;;;;;;;;;9.17;50.13;100901.81;4964012;27;113929;-63
2024/01/07 05:51:12;;;;;;;;;;;;;;;9.16;50.98;100904.78;4972253;28;98508;-66
2024/01/07 05:53:38;;;;;;;;;;;;;;;9.16;50.50;100905.59;4953054;27;98323;-66
2024/01/07 05:56:04;;;;;;;;;;;;;;;9.15;50.68;100909.31;4953939;27;98100;-66
2024/01/07 05:58:30;;;;;;;;;;;;;;;9.14;50.74;100913.06;4966456;28;102087;-63
2024/01/07 06:00:56;;;;;;;;;;;;;;;9.14;51.12;100923.81;4970121;27;98758;-66
2024/01/07 06:03:22;;;;;;;;;;;;;;;9.13;50.35;100930.28;4966497;28;99531;-67
2024/01/07 06:05:48;;;;;;;;;;;;;;;9.12;50.44;100928.66;4962321;27;98378;-64
2024/01/07 06:08:15;;;;;;;;;;;;;;;9.11;50.80;100940.44;4957317;27;99003;-66
2024/01/07 06:10:41;;;;;;;;;;;;;;;9.08;50.50;100941.78;4946447;27;98994;-63
2024/01/07 06:13:07;;;;;;;;;;;;;;;9.09;50.43;100950.66;4965427;27;98535;-67
2024/01/07 06:15:33;;;;;;;;;;;;;;;9.06;50.71;100951.13;4957170;28;98118;-68
2024/01/07 06:17:59;;;;;;;;;;;;;;;9.05;50.25;100954.91;4966474;28;118815;-67
2024/01/07 06:20:25;;;;;;;;;;;;;;;9.05;50.16;100957.59;4963388;28;128435;-63
2024/01/07 06:22:51;;;;;;;;;;;;;;;9.03;50.79;100957.00;4946290;27;99790;-63
2024/01/07 06:25:17;;;;;;;;;;;;;;;9.02;50.65;100968.81;4949238;27;98365;-64
2024/01/07 06:27:45;;;;;;;;;;;;;;;9.02;50.18;100960.75;4975050;27;97937;-63
2024/01/07 06:30:11;;;;;;;;;;;;;;;9.00;50.27;100963.69;4967590;28;98136;-64
2024/01/07 06:32:37;;;;;;;;;;;;;;;8.99;50.35;100970.13;4950590;27;111338;-66
2024/01/07 06:35:04;;;;;;;;;;;;;;;8.98;50.70;100971.19;4963608;27;126638;-67
2024/01/07 06:37:30;;;;;;;;;;;;;;;8.98;50.13;100979.25;4966151;28;98006;-63
2024/01/07 06:39:59;;;;;;;;;;;;;;;8.97;50.91;100966.06;4964289;27;99110;-67
2024/01/07 06:42:26;;;;;;;;;;;;;;;8.96;50.99;100978.69;4952482;27;127351;-63
2024/01/07 06:44:52;;;;;;;;;;;;;;;8.95;50.23;100977.03;4981739;27;98179;-64
2024/01/07 06:47:18;;;;;;;;;;;;;;;8.94;50.51;100977.31;4956239;27;98013;-67
2024/01/07 06:49:43;;;;;;;;;;;;;;;8.93;50.07;100976.50;4958278;28;127234;-67
2024/01/07 06:52:10;;;;;;;;;;;;;;;8.93;50.19;100983.75;4953038;27;129717;-67
2024/01/07 06:54:36;;;;;;;;;;;;;;;8.91;50.26;100985.84;4952026;27;99612;-66
2024/01/07 06:57:02;;;;;;;;;;;;;;;8.91;50.59;100983.16;4957792;27;100393;-63
2024/01/07 06:59:28;;;;;;;;;;;;;;;8.89;51.08;100993.34;4951859;28;98498;-66
2024/01/07 07:01:57;;;;;;;;;;;;;;;8.90;50.63;100989.59;4957849;27;99719;-64
2024/01/07 07:04:23;;;;;;;;;;;;;;;8.90;50.67;100994.97;4975003;28;98206;-63
2024/01/07 07:06:49;;;;;;;;;;;;;;;8.89;50.30;100988.78;4963343;28;111772;-64
2024/01/07 07:09:15;;;;;;;;;;;;;;;8.88;50.28;101008.66;4948601;27;117073;-63
2024/01/07 07:11:41;;;;;;;;;;;;;;;8.88;50.78;101005.16;4932519;27;99713;-64
2024/01/07 07:14:07;;;;;;;;;;;;;;;8.89;49.98;101028.31;4965043;28;98959;-64
2024/01/07 07:16:33;;;;;;;;;;;;;;;8.88;50.63;101022.09;4985140;27;98326;-64
2024/01/07 07:18:59;;;;;;;;;;;;;;;8.88;50.47;101032.84;4961004;28;114082;-64
2024/01/07 07:21:27;;;;;;;;;;;;;;;8.87;50.38;101019.66;4963710;27;100571;-67
2024/01/07 07:23:53;;;;;;;;;;;;;;;8.89;50.31;101033.69;4957888;27;99231;-64
2024/01/07 07:26:19;;;;;;;;;;;;;;;8.88;49.82;101030.16;4985650;27;99578;-67
2024/01/07 07:28:45;;;;;;;;;;;;;;;8.89;50.29;101034.50;4945972;28;127557;-67
2024/01/07 07:31:14;;;;;;;;;;;;;;;8.89;50.33;101037.19;4960817;27;128008;-67
2024/01/07 07:33:40;;;;;;;;;;;;;;;8.89;50.49;101047.13;4947947;28;99793;-67
2024/01/07 07:36:06;;;;;;;;;;;;;;;8.91;49.98;101039.63;4961332;27;97928;-64
2024/01/07 07:38:32;;;;;;;;;;;;;;;8.91;50.29;101050.38;4966053;28;99407;-64
2024/01/07 07:40:59;;;;;;;;;;;;;;;8.92;50.43;101052.00;4951240;27;98414;-65
2024/01/07 07:43:26;;;;;;;;;;;;;;;8.93;50.56;101054.47;4957083;27;99486;-64
2024/01/07 07:45:52;;;;;;;;;;;;;;;8.95;50.44;101054.22;4968590;28;99765;-64
2024/01/07 07:48:19;;;;;;;;;;;;;;;8.94;50.10;101053.41;4950581;27;98005;-64
2024/01/07 07:50:45;;;;;;;;;;;;;;;8.96;50.62;101062.06;4949849;27;99657;-64
2024/01/07 07:53:11;;;;;;;;;;;;;;;8.97;49.98;101068.25;4947208;27;99422;-64
2024/01/07 07:55:37;;;;;;;;;;;;;;;8.98;50.38;101072.56;4965029;27;109787;-64
2024/01/07 07:58:03;;;;;;;;;;;;;;;8.98;50.30;101070.69;4949351;28;98730;-67
2024/01/07 08:00:29;;;;;;;;;;;;;;;9.00;50.11;101075.81;4969259;27;101859;-64
2024/01/07 08:02:55;;;;;;;;;;;;;;;9.01;49.86;101080.16;4949179;27;100008;-67
2024/01/07 08:05:21;;;;;;;;;;;;;;;9.02;50.46;101081.78;4954602;27;112806;-67
2024/01/07 08:07:47;;;;;;;;;;;;;;;9.01;50.05;101080.97;4944940;28;126138;-64
2024/01/07 08:10:13;;;;;;;;;;;;;;;9.05;49.98;101089.38;4961742;27;127932;-64
2024/01/07 08:12:39;;;;;;;;;;;;;;;9.06;49.90;101094.50;4943365;28;99595;-64
2024/01/07 08:15:06;;;;;;;;;;;;;;;9.09;49.99;101090.50;4959558;27;98540;-67
2024/01/07 08:17:32;;;;;;;;;;;;;;;9.12;50.36;101097.25;4941885;27;110165;-64
2024/01/07 08:19:58;;;;;;;;;;;;;;;9.15;49.99;101097.59;4952298;28;99101;-65
2024/01/07 08:22:24;;;;;;;;;;;;;;;9.19;50.56;101095.25;4944461;27;98080;-67
2024/01/07 08:24:51;;;;;;;;;;;;;;;9.21;49.73;101107.41;4953778;28;98224;-67
2024/01/07 08:27:17;;;;;;;;;;;;;;;9.25;50.24;101100.47;4942375;27;98463;-67
2024/01/07 08:29:46;;;;;;;;;;;;;;;9.29;50.38;101108.88;4953599;27;116382;-64
2024/01/07 08:32:12;;;;;;;;;;;;;;;9.31;50.16;101101.38;4948451;27;98204;-67
2024/01/07 08:34:39;;;;;;;;;;;;;;;9.34;49.57;101115.16;4942599;28;117076;-67
2024/01/07 08:37:06;;;;;;;;;;;;;;;9.40;50.40;101115.25;4962375;28;98331;-64
2024/01/07 08:39:32;;;;;;;;;;;;;;;9.47;49.79;101113.19;4945786;27;99881;-67
2024/01/07 08:41:59;;;;;;;;;;;;;;;9.60;49.34;101123.66;4946667;28;126225;-64
2024/01/07 08:44:25;;;;;;;;;;;;;;;9.74;49.82;101114.16;4977771;27;98696;-67
2024/01/07 08:46:51;;;;;;;;;;;;;;;9.90;49.46;101128.69;4959755;27;108278;-64
2024/01/07 08:49:17;;;;;;;;;;;;;;;10.02;49.55;101132.13;4940810;28;118493;-67
2024/01/07 08:51:43;;;;;;;;;;;;;;;10.16;49.60;101139.84;4941006;27;98253;-64
2024/01/07 08:54:09;;;;;;;;;;;;;;;10.26;49.19;101140.84;4945856;27;98121;-67
2024/01/07 08:56:35;;;;;;;;;;;;;;;10.36;49.13;101145.53;4952412;27;99502;-64
2024/01/07 08:59:01;;;;;;;;;;;;;;;10.49;49.32;101141.66;4973814;27;98284;-64
2024/01/07 09:01:27;;;;;;;;;;;;;;;10.62;49.28;101140.47;4958650;27;105852;-67
2024/01/07 09:03:53;;;;;;;;;;;;;;;10.71;48.91;101144.34;4943751;27;117056;-67
2024/01/07 09:06:19;;;;;;;;;;;;;;;10.80;49.15;101140.13;4958171;27;104288;-64
2024/01/07 09:08:45;;;;;;;;;;;;;;;10.86;48.94;101141.03;4944508;27;99761;-67
2024/01/07 09:11:12;;;;;;;;;;;;;;;10.92;49.13;101146.19;4941695;27;128917;-67
2024/01/07 09:13:38;;;;;;;;;;;;;;;10.96;49.05;101150.03;4947816;27;98010;-64
2024/01/07 09:16:04;;;;;;;;;;;;;;;10.99;48.70;101146.81;4983373;27;115208;-67
2024/01/07 09:18:31;;;;;;;;;;;;;;;11.05;49.15;101156.63;4977012;27;98201;-64
2024/01/07 09:20:57;;;;;;;;;;;;;;;11.10;49.16;101153.16;4956998;27;98561;-64
2024/01/07 09:23:23;;;;;;;;;;;;;;;11.13;48.96;101157.22;4946712;28;98389;-67
2024/01/07 09:25:49;;;;;;;;;;;;;;;11.19;49.15;101158.91;4947348;27;127071;-64
2024/01/07 09:28:15;;;;;;;;;;;;;;;11.37;49.13;101157.75;4946611;28;98184;-64
2024/01/07 09:30:42;;;;;;;;;;;;;;;11.68;48.88;101159.63;4963104;27;98127;-67
2024/01/07 09:33:08;;;;;;;;;;;;;;;11.90;48.64;101161.44;4961640;27;99251;-64
2024/01/07 09:35:34;;;;;;;;;;;;;;;12.04;48.66;101166.13;4969787;27;98247;-64
2024/01/07 09:38:00;;;;;;;;;;;;;;;12.18;48.75;101161.09;4946619;27;98428;-64
2024/01/07 09:40:26;;;;;;;;;;;;;;;12.29;48.63;101159.25;4947118;28;98852;-64
2024/01/07 09:42:52;;;;;;;;;;;;;;;12.29;48.90;101159.25;4949370;27;98259;-67
2024/01/07 09:45:19;;;;;;;;;;;;;;;12.51;48.58;101165.34;4962784;28;126767;-67
2024/01/07 09:47:45;;;;;;;;;;;;;;;12.67;48.36;101168.09;4945369;27;100299;-64
2024/01/07 09:50:12;;;;;;;;;;;;;;;12.67;48.45;101166.22;4962407;27;99325;-67
2024/01/07 09:52:39;;;;;;;;;;;;;;;12.67;48.89;101176.22;4953846;28;98391;-67
2024/01/07 09:55:06;;;;;;;;;;;;;;;12.65;48.75;101171.06;4958866;27;98045;-67
2024/01/07 09:57:32;;;;;;;;;;;;;;;12.59;48.95;101176.72;4979597;27;119687;-64
2024/01/07 09:59:58;;;;;;;;;;;;;;;12.58;48.94;101177.81;4962741;27;125573;-67
2024/01/07 10:02:24;;;;;;;;;;;;;;;12.56;49.29;101166.44;4948863;28;99705;-64
2024/01/07 10:04:50;;;;;;;;;;;;;;;12.53;49.06;101171.28;4944043;27;103355;-64
2024/01/07 10:07:17;;;;;;;;;;;;;;;12.52;49.09;101175.06;4945142;27;100334;-66
2024/01/07 10:09:43;;;;;;;;;;;;;;;12.49;49.02;101169.38;4956545;27;98174;-67
2024/01/07 10:12:10;;;;;;;;;;;;;;;12.44;49.08;101164.75;4941447;27;98250;-64
2024/01/07 10:14:36;;;;;;;;;;;;;;;12.42;49.43;101168.81;4960135;27;98417;-64
2024/01/07 10:17:02;;;;;;;;;;;;;;;12.38;49.33;101167.69;4074254;27;10000414;-68
2024/01/07 10:19:28;;;;;;;;;;;;;;;12.34;49.28;101167.41;4973094;27;98278;-64
2024/01/07 10:22:04;;;;;;;;;;;;;;;12.32;49.09;101190.38;4942215;27;98377;-67
2024/01/07 10:24:38;;;;;;;;;;;;;;;12.26;49.20;101178.69;4956099;27;98335;-66
2024/01/07 10:27:04;;;;;;;;;;;;;;;12.21;49.22;101182.19;4947432;27;98095;-64
2024/01/07 10:29:31;;;;;;;;;;;;;;;12.22;49.18;101189.25;4960437;27;98326;-67
2024/01/07 10:31:58;;;;;;;;;;;;;;;12.25;49.16;101190.59;4942198;27;97893;-67
2024/01/07 10:34:24;;;;;;;;;;;;;;;12.27;49.43;101183.06;4958177;28;98884;-64
2024/01/07 10:36:51;;;;;;;;;;;;;;;12.31;49.37;101184.16;4963952;27;99322;-67
2024/01/07 10:39:17;;;;;;;;;;;;;;;12.27;48.95;101188.47;4963265;27;113083;-67
2024/01/07 10:41:43;;;;;;;;;;;;;;;12.34;49.22;101188.22;4955874;27;128400;-67
2024/01/07 10:44:10;;;;;;;;;;;;;;;12.29;49.14;101197.09;4943097;27;107811;-66
2024/01/07 10:46:36;;;;;;;;;;;;;;;12.31;49.08;101192.25;4944295;27;98694;-67
2024/01/07 10:49:11;;;;;;;;;;;;;;;12.25;49.35;101194.09;4954278;27;99019;-67
2024/01/07 10:51:37;;;;;;;;;;;;;;;12.14;49.28;101197.81;4964426;28;98563;-67
2024/01/07 10:54:03;;;;;;;;;;;;;;;12.02;49.41;101203.44;4959074;27;98314;-64
2024/01/07 10:56:38;;;;;;;;;;;;;;;11.94;49.56;101197.66;4958801;27;98106;-64
2024/01/07 10:59:04;;;;;;;;;;;;;;;11.87;49.30;101186.25;4962178;27;98035;-64
2024/01/07 11:01:31;;;;;;;;;;;;;;;11.80;49.45;101187.28;4957678;28;102646;-67
2024/01/07 11:04:08;;;;;;;;;;;;;;;11.76;49.46;101190.75;4960436;27;98383;-66
2024/01/07 11:06:53;;;;;;;;;;;;;;;11.70;49.47;101195.28;4959615;28;98553;-67
2024/01/07 11:09:20;;;;;;;;;;;;;;;11.61;49.59;101190.63;4977206;27;98522;-64
2024/01/07 11:11:47;;;;;;;;;;;;;;;11.52;49.64;101190.28;4975556;27;98524;-67
2024/01/07 11:14:47;;;;;;;;;;;;;;;11.45;49.59;101197.78;4960811;27;99704;-67
2024/01/07 11:17:13;;;;;;;;;;;;;;;11.39;49.55;101204.97;4979987;27;98207;-68
2024/01/07 11:19:50;;;;;;;;;;;;;;;11.34;49.68;101196.84;4940029;27;98242;-67
2024/01/07 11:22:29;;;;;;;;;;;;;;;11.31;49.47;101200.03;4943992;27;98346;-64
2024/01/07 11:24:59;;;;;;;;;;;;;;;11.30;49.49;101193.03;4956882;27;98260;-66
2024/01/07 11:27:28;;;;;;;;;;;;;;;11.26;49.53;101192.72;4939413;28;98220;-67
2024/01/07 11:29:56;;;;;;;;;;;;;;;11.24;49.47;101199.44;4957254;27;103022;-67
2024/01/07 11:32:43;;;;;;;;;;;;;;;11.23;49.50;101203.19;4942902;27;98447;-67
2024/01/07 11:35:09;;;;;;;;;;;;;;;11.29;49.75;101192.22;4956357;27;98664;-64
2024/01/07 11:37:36;;;;;;;;;;;;;;;11.35;49.26;101197.66;4959342;27;98643;-64
2024/01/07 11:40:05;;;;;;;;;;;;;;;11.43;49.13;101210.69;4937629;28;98726;-65
2024/01/07 11:42:32;;;;;;;;;;;;;;;11.51;49.28;101192.16;4957065;27;99692;-66
2024/01/07 11:44:58;;;;;;;;;;;;;;;11.49;49.30;101194.28;4958712;27;98636;-64
2024/01/07 11:47:27;;;;;;;;;;;;;;;11.45;49.26;101197.78;4955789;27;98660;-64
2024/01/07 11:49:54;;;;;;;;;;;;;;;11.43;49.28;101205.28;4967860;27;98578;-64
2024/01/07 11:52:21;;;;;;;;;;;;;;;11.36;49.38;101201.97;4943180;27;98414;-64
2024/01/07 11:54:47;;;;;;;;;;;;;;;11.30;49.51;101198.41;4979208;27;98126;-64
2024/01/07 11:57:14;;;;;;;;;;;;;;;11.28;49.40;101206.78;4958800;27;98195;-64
2024/01/07 11:59:40;;;;;;;;;;;;;;;11.27;49.42;101198.91;4948209;27;98245;-64
2024/01/07 12:02:06;;;;;;;;;;;;;;;11.24;49.47;101202.16;4939447;28;98271;-67
2024/01/07 12:04:36;;;;;;;;;;;;;;;11.28;49.35;101209.47;4948364;27;98382;-67
2024/01/07 12:07:03;;;;;;;;;;;;;;;11.27;49.40;101196.22;4946436;27;98888;-64
2024/01/07 12:09:29;;;;;;;;;;;;;;;11.25;49.18;101203.78;4939637;27;98050;-67
2024/01/07 12:11:56;;;;;;;;;;;;;;;11.29;49.34;101199.50;4946978;27;98489;-67
2024/01/07 12:14:22;;;;;;;;;;;;;;;11.43;49.33;101208.00;4941569;27;99984;-64
2024/01/07 12:16:49;;;;;;;;;;;;;;;11.48;48.90;101199.97;4959034;28;98722;-66
2024/01/07 12:19:15;;;;;;;;;;;;;;;11.48;49.09;101197.25;4940661;27;99608;-64
2024/01/07 12:21:42;;;;;;;;;;;;;;;11.48;49.10;101198.06;4946047;27;98232;-64
2024/01/07 12:24:08;;;;;;;;;;;;;;;11.45;49.18;101212.06;4939751;28;100160;-67
2024/01/07 12:26:34;;;;;;;;;;;;;;;11.39;49.28;101213.06;4941732;27;99429;-67
2024/01/07 12:29:04;;;;;;;;;;;;;;;11.28;49.52;101214.88;4959896;27;98251;-64
2024/01/07 12:31:33;;;;;;;;;;;;;;;11.20;49.45;101207.25;4960355;27;98217;-64
2024/01/07 12:34:00;;;;;;;;;;;;;;;11.21;49.49;101203.47;4960708;28;98986;-67
2024/01/07 12:36:26;;;;;;;;;;;;;;;11.16;49.42;101197.19;4956438;28;98195;-67
2024/01/07 12:38:55;;;;;;;;;;;;;;;11.04;49.54;101198.16;4974147;27;101958;-64